Terminal Aerodrome Forecast
Issued by NWS

Home | Current Version | Previous Version | Text Only | Print | Product List | Glossary On
Versions: 1 2 3 4 5 6 7 8 9 10 11 12 13 14 15 16 17 18 19
000
FTUS46 KPQR 260527
TAFONP
TAF
KONP 260527Z 2606/2706 23015G25KT 3SM -SHRA BR OVC004
     FM260900 20012G20KT 4SM -SHRA BR BKN006 OVC012
     FM261700 21008KT P6SM -RA BKN015 OVC025
     FM262100 28011KT P6SM -SHRA OVC012=

USA.gov is the U.S. government's official web portal to all federal, state and local government web resources and services.